Time;durP1;ratioP1;P1;durP2;ratioP2;P2;SDS_P1;SDS_P2;PMS_P1;PMS_P2;Temp;Humidity;BMP_temperature;BMP_pressure;BME280_temperature;BME280_humidity;BME280_pressure;Samples;Min_cycle;Max_cycle;Signal;HPM_P1;HPM_P2
2023/04/17 00:00:16;;;;;;;67.53;34.70;;;;;;;-139.84;100.00;61778.28;4972860;28;20030;-78
2023/04/17 00:02:45;;;;;;;66.95;37.17;;;;;;;-139.84;100.00;61778.28;4968977;28;20042;-79
2023/04/17 00:05:11;;;;;;;75.05;39.30;;;;;;;-139.84;100.00;61778.28;4981297;28;20406;-78
2023/04/17 00:07:37;;;;;;;80.77;37.57;;;;;;;-139.84;100.00;61778.28;4986401;28;20034;-77
2023/04/17 00:10:09;;;;;;;76.97;37.70;;;;;;;-139.84;100.00;61778.28;4957031;28;20485;-77
2023/04/17 00:12:35;;;;;;;68.20;35.95;;;;;;;-139.84;100.00;61778.28;4972497;28;20497;-77
2023/04/17 00:15:00;;;;;;;68.67;35.93;;;;;;;-139.84;100.00;61778.28;4967399;28;20034;-79
2023/04/17 00:17:26;;;;;;;58.80;35.00;;;;;;;-139.84;100.00;61778.28;4971409;28;20034;-80
2023/04/17 00:19:56;;;;;;;57.67;32.30;;;;;;;-139.84;100.00;61778.28;4985165;28;20089;-79
2023/04/17 00:22:23;;;;;;;59.33;33.50;;;;;;;-139.84;100.00;61778.28;4989338;28;20018;-77
2023/04/17 00:24:49;;;;;;;64.28;31.40;;;;;;;-139.84;100.00;61778.28;4985113;28;20557;-80
2023/04/17 00:27:15;;;;;;;52.70;30.23;;;;;;;-139.84;100.00;61778.28;4986544;28;20143;-77
2023/04/17 00:29:43;;;;;;;45.10;27.43;;;;;;;-139.84;100.00;61778.28;4986881;28;20057;-77
2023/04/17 00:32:09;;;;;;;43.47;28.42;;;;;;;-139.84;100.00;61778.28;4986028;28;20023;-78
2023/04/17 00:34:34;;;;;;;51.13;28.58;;;;;;;-139.84;100.00;61778.28;4987849;28;20026;-78
2023/04/17 00:37:00;;;;;;;41.93;27.07;;;;;;;-139.84;100.00;61778.28;4969109;28;20569;-78
2023/04/17 00:39:27;;;;;;;45.78;27.13;;;;;;;-139.84;100.00;61778.28;4984121;28;20106;-78
2023/04/17 00:41:56;;;;;;;43.85;26.73;;;;;;;-139.84;100.00;61778.28;4989472;28;20102;-78
2023/04/17 00:44:23;;;;;;;44.50;26.27;;;;;;;-139.84;100.00;61778.28;4977574;28;20429;-77
2023/04/17 00:46:49;;;;;;;46.28;26.92;;;;;;;-139.84;100.00;61778.28;4959696;28;20022;-79
2023/04/17 00:49:16;;;;;;;50.17;27.98;;;;;;;-139.84;100.00;61778.28;4973119;28;20512;-80
2023/04/17 00:51:43;;;;;;;48.13;28.50;;;;;;;-139.84;100.00;61778.28;4990809;28;20065;-78
2023/04/17 00:54:11;;;;;;;48.97;27.42;;;;;;;-139.84;100.00;61778.28;4979162;28;20416;-77
2023/04/17 00:56:36;;;;;;;44.03;27.65;;;;;;;-139.84;100.00;61778.28;4978674;28;20035;-79
2023/04/17 00:59:05;;;;;;;43.83;27.83;;;;;;;-139.84;100.00;61778.28;4988029;28;20060;-78
2023/04/17 01:01:33;;;;;;;50.80;28.83;;;;;;;-139.84;100.00;61778.28;4967368;28;20031;-78
2023/04/17 01:04:00;;;;;;;49.65;29.48;;;;;;;-139.84;100.00;61778.28;4962463;28;20026;-78
2023/04/17 01:06:26;;;;;;;52.22;30.73;;;;;;;-139.84;100.00;61778.28;4973404;28;20104;-77
2023/04/17 01:08:52;;;;;;;48.55;28.20;;;;;;;-139.84;100.00;61778.28;4972298;28;20038;-78
2023/04/17 01:11:20;;;;;;;53.20;29.30;;;;;;;-139.84;100.00;61778.28;4969730;28;20058;-78
2023/04/17 01:13:47;;;;;;;53.67;30.20;;;;;;;-139.84;100.00;61778.28;4972057;28;20486;-78
2023/04/17 01:16:13;;;;;;;50.75;29.05;;;;;;;-139.84;100.00;61778.28;4987711;28;20030;-78
2023/04/17 01:18:39;;;;;;;45.08;26.30;;;;;;;-139.84;100.00;61778.28;4989641;28;20041;-78
2023/04/17 01:21:05;;;;;;;47.97;25.83;;;;;;;-139.84;100.00;61778.28;4954677;28;20053;-77
2023/04/17 01:23:50;;;;;;;40.67;24.77;;;;;;;-139.84;100.00;61778.28;4970884;28;20026;-79
2023/04/17 01:26:18;;;;;;;40.97;24.45;;;;;;;-139.84;100.00;61778.28;4960921;28;20046;-78
2023/04/17 01:28:54;;;;;;;41.50;23.70;;;;;;;-139.84;100.00;61778.28;4986339;28;20030;-77
2023/04/17 01:31:21;;;;;;;39.10;23.70;;;;;;;-139.84;100.00;61778.28;4977132;28;20078;-77
2023/04/17 01:33:47;;;;;;;39.42;23.48;;;;;;;-139.84;100.00;61778.28;4991700;28;20022;-79
2023/04/17 01:36:15;;;;;;;43.83;23.75;;;;;;;-139.84;100.00;61778.28;4974411;28;20046;-78
2023/04/17 01:38:44;;;;;;;39.97;22.30;;;;;;;-139.84;100.00;61778.28;4970489;28;20378;-76
2023/04/17 01:41:10;;;;;;;45.80;24.20;;;;;;;-139.84;100.00;61778.28;4980371;28;20050;-77
2023/04/17 01:43:41;;;;;;;40.13;24.53;;;;;;;-139.84;100.00;61778.28;4975402;28;20022;-76
2023/04/17 01:46:07;;;;;;;41.25;24.98;;;;;;;-139.84;100.00;61778.28;4970032;28;20466;-79
2023/04/17 01:48:33;;;;;;;42.13;23.90;;;;;;;-139.84;100.00;61778.28;4972848;28;20486;-78
2023/04/17 01:51:01;;;;;;;41.58;24.08;;;;;;;-139.84;100.00;61778.28;4961820;28;20421;-79
2023/04/17 01:53:31;;;;;;;44.28;25.50;;;;;;;-139.84;100.00;61778.28;4989752;28;20023;-79
2023/04/17 01:55:57;;;;;;;50.03;26.30;;;;;;;-139.84;100.00;61778.28;4989395;28;20034;-80
2023/04/17 01:58:23;;;;;;;37.70;24.88;;;;;;;-139.84;100.00;61778.28;4970706;28;20030;-79
2023/04/17 02:00:50;;;;;;;45.85;26.23;;;;;;;-139.84;100.00;61778.28;4977879;28;20085;-79
2023/04/17 02:03:15;;;;;;;42.30;25.65;;;;;;;-139.84;100.00;61778.28;4971248;28;20038;-78
2023/04/17 02:05:45;;;;;;;51.55;25.67;;;;;;;-139.84;100.00;61778.28;4969418;28;20050;-79
2023/04/17 02:08:11;;;;;;;44.47;24.98;;;;;;;-139.84;100.00;61778.28;4987823;28;20046;-76
2023/04/17 02:10:40;;;;;;;49.63;25.30;;;;;;;-139.84;100.00;61778.28;4983144;28;20034;-78
2023/04/17 02:13:07;;;;;;;46.75;25.02;;;;;;;-139.84;100.00;61778.28;4987658;28;20515;-77
2023/04/17 02:15:36;;;;;;;43.97;24.65;;;;;;;-139.84;100.00;61778.28;4985774;28;20488;-77
2023/04/17 02:18:07;;;;;;;46.75;25.80;;;;;;;-139.84;100.00;61778.28;4986191;28;20022;-78
2023/04/17 02:20:34;;;;;;;45.22;26.15;;;;;;;-139.84;100.00;61778.28;4968990;28;20552;-76
2023/04/17 02:23:00;;;;;;;57.60;24.98;;;;;;;-139.84;100.00;61778.28;4975296;28;20505;-77
2023/04/17 02:25:26;;;;;;;48.92;25.83;;;;;;;-139.84;100.00;61778.28;4986890;28;20026;-76
2023/04/17 02:27:53;;;;;;;48.58;25.60;;;;;;;-139.84;100.00;61778.28;4977187;28;20034;-76
2023/04/17 02:30:25;;;;;;;45.60;25.67;;;;;;;-139.84;100.00;61778.28;4986752;28;20500;-77
2023/04/17 02:32:52;;;;;;;56.28;27.83;;;;;;;-139.84;100.00;61778.28;4968563;28;20030;-76
2023/04/17 02:35:22;;;;;;;49.63;27.02;;;;;;;-139.84;100.00;61778.28;4987869;28;20431;-78
2023/04/17 02:37:48;;;;;;;48.08;26.83;;;;;;;-139.84;100.00;61778.28;4986636;28;20055;-78
2023/04/17 02:40:14;;;;;;;48.28;25.92;;;;;;;-139.84;100.00;61778.28;4987750;28;20044;-76
2023/04/17 02:42:39;;;;;;;48.70;26.48;;;;;;;-139.84;100.00;61778.28;4989110;28;20030;-77
2023/04/17 02:45:06;;;;;;;45.63;24.90;;;;;;;-139.84;100.00;61778.28;4981709;28;20498;-77
2023/04/17 02:47:31;;;;;;;48.58;25.58;;;;;;;-139.84;100.00;61778.28;4985040;28;20074;-77
2023/04/17 02:49:58;;;;;;;52.42;25.02;;;;;;;-139.84;100.00;61778.28;4976327;28;20044;-76
2023/04/17 02:52:28;;;;;;;40.67;25.13;;;;;;;-139.84;100.00;61778.28;4950973;28;20129;-77
2023/04/17 02:54:57;;;;;;;48.40;23.80;;;;;;;-139.84;100.00;61778.28;4970075;28;20130;-77
2023/04/17 02:57:24;;;;;;;47.58;24.63;;;;;;;-139.84;100.00;61778.28;4986992;28;20164;-77
2023/04/17 02:59:50;;;;;;;50.67;25.70;;;;;;;-139.84;100.00;61778.28;4973176;28;20085;-78
2023/04/17 03:02:20;;;;;;;44.83;25.33;;;;;;;-139.84;100.00;61778.28;4988599;28;20071;-77
2023/04/17 03:04:49;;;;;;;47.97;25.50;;;;;;;-139.84;100.00;61778.28;4987965;28;20055;-76
2023/04/17 03:07:19;;;;;;;46.03;24.42;;;;;;;-139.84;100.00;61778.28;4990345;28;20030;-76
2023/04/17 03:09:45;;;;;;;46.03;24.58;;;;;;;-139.84;100.00;61778.28;4992171;28;20104;-80
2023/04/17 03:12:17;;;;;;;44.22;24.88;;;;;;;-139.84;100.00;61778.28;4976006;28;20054;-77
2023/04/17 03:14:43;;;;;;;39.25;23.77;;;;;;;-139.84;100.00;61778.28;4985795;28;20046;-78
2023/04/17 03:17:09;;;;;;;38.92;23.92;;;;;;;-139.84;100.00;61778.28;4987458;28;20035;-78
2023/04/17 03:19:34;;;;;;;41.25;24.67;;;;;;;-139.84;100.00;61778.28;4987956;28;20049;-76
2023/04/17 03:22:02;;;;;;;41.47;24.17;;;;;;;-139.84;100.00;61778.28;4987134;28;20042;-76
2023/04/17 03:24:28;;;;;;;38.83;22.50;;;;;;;-139.84;100.00;61778.28;4988072;28;20035;-77
2023/04/17 03:26:56;;;;;;;48.95;24.70;;;;;;;-139.84;100.00;61778.28;4972206;28;20054;-78
2023/04/17 03:29:22;;;;;;;44.30;25.13;;;;;;;-139.84;100.00;61778.28;4986248;28;20037;-77
2023/04/17 03:31:47;;;;;;;47.70;24.73;;;;;;;-139.84;100.00;61778.28;4972697;28;20619;-77
2023/04/17 03:34:18;;;;;;;44.58;25.85;;;;;;;-139.84;100.00;61778.28;4977385;28;20109;-78
2023/04/17 03:36:44;;;;;;;49.15;25.33;;;;;;;-139.84;100.00;61778.28;4978129;28;20042;-77
2023/04/17 03:39:09;;;;;;;39.67;24.50;;;;;;;-139.84;100.00;61778.28;4986051;28;20415;-77
2023/04/17 03:41:37;;;;;;;48.00;25.20;;;;;;;-139.84;100.00;61778.28;5001897;28;20030;-78
2023/04/17 03:44:05;;;;;;;41.55;25.65;;;;;;;-139.84;100.00;61778.28;5001009;28;20030;-78
2023/04/17 03:46:31;;;;;;;47.95;25.88;;;;;;;-139.84;100.00;61778.28;5004267;28;20514;-78
2023/04/17 03:48:58;;;;;;;43.95;23.80;;;;;;;-139.84;100.00;61778.28;5001456;28;20042;-77
2023/04/17 03:51:23;;;;;;;43.72;24.10;;;;;;;-139.84;100.00;61778.28;5001487;28;20027;-77
2023/04/17 03:53:52;;;;;;;42.40;24.70;;;;;;;-139.84;100.00;61778.28;5002919;28;20039;-78
2023/04/17 03:56:17;;;;;;;38.20;23.20;;;;;;;-139.84;100.00;61778.28;5007050;28;20045;-78
2023/04/17 03:58:44;;;;;;;38.35;23.15;;;;;;;-139.84;100.00;61778.28;5004429;28;20030;-78
2023/04/17 04:01:13;;;;;;;42.65;23.67;;;;;;;-139.84;100.00;61778.28;5007433;28;20022;-77
2023/04/17 04:03:39;;;;;;;39.60;23.00;;;;;;;-139.84;100.00;61778.28;5003666;28;20058;-78
2023/04/17 04:06:08;;;;;;;41.33;23.05;;;;;;;-139.84;100.00;61778.28;5005156;28;20030;-78
2023/04/17 04:08:34;;;;;;;32.17;22.17;;;;;;;-139.84;100.00;61778.28;5003983;28;20034;-77
2023/04/17 04:11:00;;;;;;;41.20;21.73;;;;;;;-139.84;100.00;61778.28;4973011;28;20026;-79
2023/04/17 04:13:30;;;;;;;38.85;22.88;;;;;;;-139.84;100.00;61778.28;5000999;28;20027;-76
2023/04/17 04:15:58;;;;;;;36.85;21.50;;;;;;;-139.84;100.00;61778.28;4992558;28;20081;-77
2023/04/17 04:18:23;;;;;;;42.50;23.65;;;;;;;-139.84;100.00;61778.28;4984330;28;20034;-77
2023/04/17 04:20:49;;;;;;;44.45;24.48;;;;;;;-139.84;100.00;61778.28;4985712;28;20045;-76
2023/04/17 04:23:15;;;;;;;38.43;23.20;;;;;;;-139.84;100.00;61778.28;5006490;28;20024;-75
2023/04/17 04:25:42;;;;;;;41.08;23.60;;;;;;;-139.84;100.00;61778.28;5004524;28;20311;-77
2023/04/17 04:28:09;;;;;;;40.70;23.05;;;;;;;-139.84;100.00;61778.28;4974865;28;20046;-77
2023/04/17 04:30:37;;;;;;;42.42;23.58;;;;;;;-139.84;100.00;61778.28;4996925;28;20021;-76
2023/04/17 04:33:09;;;;;;;35.30;21.00;;;;;;;-139.84;100.00;61778.28;4994641;28;20039;-76
2023/04/17 04:35:34;;;;;;;38.35;21.52;;;;;;;-139.84;100.00;61778.28;5008837;28;20010;-76
2023/04/17 04:38:04;;;;;;;33.92;21.02;;;;;;;-139.84;100.00;61778.28;4992323;28;20053;-77
2023/04/17 04:40:34;;;;;;;38.63;21.83;;;;;;;-139.84;100.00;61778.28;5003765;28;20038;-76
2023/04/17 04:43:03;;;;;;;33.53;20.60;;;;;;;-139.84;100.00;61778.28;4998134;28;20030;-78
2023/04/17 04:45:29;;;;;;;42.03;21.90;;;;;;;-139.84;100.00;61778.28;4990032;28;20050;-77
2023/04/17 04:47:56;;;;;;;36.88;20.30;;;;;;;-139.84;100.00;61778.28;4950670;29;20129;-77
2023/04/17 04:50:23;;;;;;;31.90;19.13;;;;;;;-139.84;100.00;61778.28;4977395;28;20489;-77
2023/04/17 04:52:48;;;;;;;;;;;;;;;-139.84;100.00;61778.28;4978169;28;20121;-77
2023/04/17 04:55:20;;;;;;;33.83;20.85;;;;;;;-139.84;100.00;61778.28;4991642;28;20365;-77
2023/04/17 04:57:46;;;;;;;36.63;21.88;;;;;;;-139.84;100.00;61778.28;4989673;28;20058;-76
2023/04/17 05:00:13;;;;;;;36.97;22.40;;;;;;;-139.84;100.00;61778.28;4992771;28;20030;-77
2023/04/17 05:02:38;;;;;;;32.97;20.92;;;;;;;-139.84;100.00;61778.28;4998039;28;20026;-75
2023/04/17 05:05:05;;;;;;;41.97;20.98;;;;;;;-139.84;100.00;61778.28;4976174;28;20050;-76
2023/04/17 05:07:32;;;;;;;37.22;21.65;;;;;;;-139.84;100.00;61778.28;4976108;28;20022;-77
2023/04/17 05:09:59;;;;;;;36.38;23.60;;;;;;;-139.84;100.00;61778.28;4994844;28;20042;-75
2023/04/17 05:12:24;;;;;;;;;;;;;;;-139.84;100.00;61778.28;4974568;28;20420;-76
2023/04/17 05:14:51;;;;;;;38.95;22.55;;;;;;;-139.84;100.00;61778.28;4990278;28;19921;-76
2023/04/17 05:17:16;;;;;;;35.53;22.65;;;;;;;-139.84;100.00;61778.28;4978289;28;20022;-76
2023/04/17 05:19:42;;;;;;;36.03;22.35;;;;;;;-139.84;100.00;61778.28;4991757;28;20401;-78
2023/04/17 05:22:07;;;;;;;43.10;23.85;;;;;;;-139.84;100.00;61778.28;4971700;28;20038;-77
2023/04/17 05:24:34;;;;;;;43.08;24.92;;;;;;;-139.84;100.00;61778.28;4971262;28;20031;-76
2023/04/17 05:27:00;;;;;;;43.72;25.35;;;;;;;-139.84;100.00;61778.28;4975252;28;20038;-77
2023/04/17 05:29:26;;;;;;;44.20;24.23;;;;;;;-139.84;100.00;61778.28;4989053;28;20026;-77
2023/04/17 05:31:51;;;;;;;40.93;25.00;;;;;;;-139.84;100.00;61778.28;4976626;28;20034;-77
2023/04/17 05:34:17;;;;;;;46.17;25.37;;;;;;;-139.84;100.00;61778.28;4991944;28;20034;-76
2023/04/17 05:36:42;;;;;;;44.80;25.95;;;;;;;-139.84;100.00;61778.28;4986188;28;20050;-77
2023/04/17 05:39:08;;;;;;;49.83;27.20;;;;;;;-139.84;100.00;61778.28;4972893;28;20027;-76
2023/04/17 05:41:33;;;;;;;40.72;26.08;;;;;;;-139.84;100.00;61778.28;4989195;28;20435;-76
2023/04/17 05:43:58;;;;;;;41.33;25.80;;;;;;;-139.84;100.00;61778.28;4970635;28;20022;-76
2023/04/17 05:46:24;;;;;;;51.63;26.42;;;;;;;-139.84;100.00;61778.28;4985099;28;20371;-77
2023/04/17 05:48:50;;;;;;;45.42;27.08;;;;;;;-139.84;100.00;61778.28;4968166;28;20125;-77
2023/04/17 05:51:15;;;;;;;46.08;26.30;;;;;;;-139.84;100.00;61778.28;4971415;28;20035;-77
2023/04/17 05:53:43;;;;;;;41.22;25.88;;;;;;;-139.84;100.00;61778.28;4986949;28;20030;-77
2023/04/17 05:56:09;;;;;;;43.05;26.40;;;;;;;-139.84;100.00;61778.28;4986281;28;20096;-76
2023/04/17 05:58:34;;;;;;;44.72;28.13;;;;;;;-139.84;100.00;61778.28;4986933;28;20053;-77
2023/04/17 06:01:01;;;;;;;50.95;27.98;;;;;;;-139.84;100.00;61778.28;4989009;28;20057;-77
2023/04/17 06:03:26;;;;;;;46.30;27.77;;;;;;;-139.84;100.00;61778.28;4987496;28;20113;-77
2023/04/17 06:05:52;;;;;;;46.43;28.20;;;;;;;-139.84;100.00;61778.28;4988561;28;20476;-77
2023/04/17 06:08:17;;;;;;;48.53;27.40;;;;;;;-139.84;100.00;61778.28;4984730;28;20035;-77
2023/04/17 06:10:44;;;;;;;50.53;28.15;;;;;;;-139.84;100.00;61778.28;4990046;28;20114;-78
2023/04/17 06:13:10;;;;;;;;;;;;;;;-139.84;100.00;61778.28;4986904;28;20026;-77
2023/04/17 06:15:35;;;;;;;45.15;27.58;;;;;;;-139.84;100.00;61778.28;4991432;28;19921;-77
2023/04/17 06:18:00;;;;;;;44.67;27.23;;;;;;;-139.84;100.00;61778.28;4983459;28;20056;-79
2023/04/17 06:20:26;;;;;;;41.30;27.15;;;;;;;-139.84;100.00;61778.28;4989793;28;20113;-76
2023/04/17 06:22:51;;;;;;;46.45;28.25;;;;;;;-139.84;100.00;61778.28;4984689;28;20023;-78
2023/04/17 06:25:17;;;;;;;49.38;26.63;;;;;;;-139.84;100.00;61778.28;4988728;28;20038;-76
2023/04/17 06:27:43;;;;;;;45.00;27.30;;;;;;;-139.84;100.00;61778.28;4972972;28;20094;-77
2023/04/17 06:30:08;;;;;;;51.92;29.50;;;;;;;-139.84;100.00;61778.28;4986280;28;20689;-78
2023/04/17 06:32:34;;;;;;;45.78;27.75;;;;;;;-139.84;100.00;61778.28;4973647;28;20026;-78
2023/04/17 06:34:59;;;;;;;49.13;29.48;;;;;;;-139.84;100.00;61778.28;4985095;28;20046;-77
2023/04/17 06:37:25;;;;;;;49.33;27.87;;;;;;;-139.84;100.00;61778.28;4983745;28;20640;-78
2023/04/17 06:39:50;;;;;;;50.75;28.73;;;;;;;-139.84;100.00;61778.28;4968607;28;20513;-79
2023/04/17 06:42:16;;;;;;;45.58;28.48;;;;;;;-139.84;100.00;61778.28;4964512;28;20560;-79
2023/04/17 06:56:45;;;;;;;43.67;27.27;;;;;;;8.94;100.00;102813.53;5090994;27;20394;-75
2023/04/17 06:59:10;;;;;;;44.37;25.90;;;;;;;9.15;100.00;102807.00;5090788;28;20047;-74
2023/04/17 07:01:36;;;;;;;42.73;26.23;;;;;;;9.20;100.00;102815.63;5090646;28;20550;-75
2023/04/17 07:04:02;;;;;;;38.92;26.05;;;;;;;9.21;100.00;102822.81;5092675;28;20030;-74
2023/04/17 07:06:28;;;;;;;43.47;24.67;;;;;;;9.29;100.00;102819.41;5078870;28;20438;-73
2023/04/17 07:08:53;;;;;;;43.10;26.27;;;;;;;9.22;100.00;102820.94;5091614;28;20020;-74
2023/04/17 07:11:18;;;;;;;35.22;24.45;;;;;;;9.13;100.00;102824.53;5092928;28;20032;-72
2023/04/17 07:13:44;;;;;;;43.75;24.75;;;;;;;9.16;100.00;102830.59;5091350;28;20020;-73
2023/04/17 07:16:09;;;;;;;35.78;24.35;;;;;;;9.19;100.00;102835.75;5092464;28;20456;-73
2023/04/17 07:18:35;;;;;;;40.42;25.05;;;;;;;9.25;100.00;102837.09;5089751;28;20051;-73
2023/04/17 07:21:01;;;;;;;37.97;25.23;;;;;;;9.19;100.00;102854.91;5093530;28;20039;-73
2023/04/17 07:23:26;;;;;;;35.20;23.15;;;;;;;9.13;100.00;102852.72;5085317;28;20032;-74
2023/04/17 07:25:52;;;;;;;40.78;24.08;;;;;;;9.15;100.00;102866.25;5087470;28;20079;-73
2023/04/17 07:28:17;;;;;;;45.17;24.53;;;;;;;9.13;100.00;102871.84;5093782;28;20039;-73
2023/04/17 07:30:43;;;;;;;35.05;23.92;;;;;;;9.08;100.00;102865.94;5095632;28;20116;-73
2023/04/17 07:33:08;;;;;;;32.73;22.03;;;;;;;9.07;100.00;102860.63;5095571;28;20385;-73
2023/04/17 07:35:35;;;;;;;37.40;24.10;;;;;;;9.12;100.00;102866.56;5094186;28;20012;-74
2023/04/17 07:38:02;;;;;;;41.25;24.50;;;;;;;9.07;100.00;102856.00;5083330;28;20042;-73
2023/04/17 07:40:29;;;;;;;41.10;24.70;;;;;;;9.04;100.00;102863.63;5090330;28;20059;-73
2023/04/17 07:42:55;;;;;;;36.35;23.80;;;;;;;8.99;100.00;102854.97;5094027;28;20028;-73
2023/04/17 07:45:21;;;;;;;38.25;24.45;;;;;;;9.04;100.00;102853.56;5091815;28;20550;-74
2023/04/17 07:47:46;;;;;;;38.33;26.47;;;;;;;9.14;100.00;102846.25;5095685;28;20032;-73
2023/04/17 07:50:12;;;;;;;42.58;25.00;;;;;;;9.25;100.00;102842.56;5094670;28;20032;-73
2023/04/17 07:52:37;;;;;;;38.00;24.97;;;;;;;9.27;100.00;102843.25;5098411;28;20035;-73
2023/04/17 07:55:03;;;;;;;43.00;23.95;;;;;;;9.21;100.00;102849.28;5094166;28;20111;-73
2023/04/17 07:57:29;;;;;;;39.23;24.33;;;;;;;9.26;100.00;102839.69;5079728;28;20016;-73
2023/04/17 07:59:54;;;;;;;41.78;24.80;;;;;;;9.34;100.00;102847.19;5082713;28;20028;-73
2023/04/17 08:02:20;;;;;;;43.03;24.77;;;;;;;9.27;100.00;102846.88;5076984;28;20114;-73
2023/04/17 08:04:45;;;;;;;38.47;23.70;;;;;;;9.35;100.00;102849.75;5081543;28;20028;-73
2023/04/17 08:07:11;;;;;;;42.17;25.90;;;;;;;9.35;100.00;102846.19;5074534;28;20040;-73
2023/04/17 08:09:37;;;;;;;39.93;24.73;;;;;;;9.33;100.00;102846.31;5081872;28;20417;-73
2023/04/17 08:12:03;;;;;;;41.45;24.92;;;;;;;9.35;100.00;102844.28;5081548;28;20025;-73
2023/04/17 08:14:29;;;;;;;38.40;25.30;;;;;;;9.42;100.00;102853.69;5081281;28;20032;-73
2023/04/17 08:16:54;;;;;;;39.23;26.03;;;;;;;9.26;100.00;102855.22;5060912;28;20075;-73
2023/04/17 08:19:20;;;;;;;40.83;25.30;;;;;;;9.36;100.00;102854.25;5076363;28;20039;-73
2023/04/17 08:21:49;;;;;;;44.50;25.52;;;;;;;9.46;100.00;102857.00;5078207;28;20036;-73
2023/04/17 08:24:16;;;;;;;41.25;25.20;;;;;;;9.45;100.00;102853.38;5081257;28;20450;-73
2023/04/17 08:26:41;;;;;;;42.70;25.65;;;;;;;9.44;100.00;102865.34;5083576;28;20523;-73
2023/04/17 08:29:07;;;;;;;41.22;25.60;;;;;;;9.37;100.00;102863.28;5075224;28;20036;-73
2023/04/17 08:31:35;;;;;;;41.47;26.67;;;;;;;9.32;100.00;102866.47;5073031;28;20029;-73
2023/04/17 08:34:01;;;;;;;42.72;26.88;;;;;;;9.23;100.00;102860.97;5079691;28;20020;-73
2023/04/17 08:36:27;;;;;;;41.42;26.70;;;;;;;9.37;100.00;102875.13;5054241;28;20166;-73
2023/04/17 08:38:52;;;;;;;44.60;26.75;;;;;;;9.37;100.00;102872.38;5082691;28;20556;-73
2023/04/17 08:41:25;;;;;;;40.40;25.52;;;;;;;9.40;100.00;102874.81;5078606;28;20055;-74
2023/04/17 08:43:52;;;;;;;41.88;26.30;;;;;;;9.37;100.00;102876.97;5081173;28;20039;-74
2023/04/17 08:46:20;;;;;;;;;;;;;;;9.31;100.00;102883.88;5084248;28;20059;-73
2023/04/17 08:48:45;;;;;;;36.40;24.35;;;;;;;9.41;100.00;102876.56;5075807;28;20416;-72
2023/04/17 08:51:11;;;;;;;41.20;27.37;;;;;;;9.35;100.00;102868.91;5086303;28;20226;-73
2023/04/17 08:53:36;;;;;;;42.97;27.17;;;;;;;9.38;100.00;102875.97;5084137;28;20069;-73
2023/04/17 08:56:05;;;;;;;37.75;26.35;;;;;;;9.56;100.00;102880.63;5057920;28;20222;-73
2023/04/17 08:58:34;;;;;;;43.67;27.30;;;;;;;9.46;100.00;102870.66;5079274;28;20028;-73
2023/04/17 09:01:11;;;;;;;47.17;26.10;;;;;;;9.46;100.00;102868.78;5081639;28;20519;-73
2023/04/17 09:03:47;;;;;;;41.83;27.13;;;;;;;9.51;100.00;102874.69;5059098;28;20089;-73
2023/04/17 09:06:14;;;;;;;40.42;26.30;;;;;;;9.65;100.00;102877.03;5062066;28;20435;-73
2023/04/17 09:08:57;;;;;;;40.83;26.73;;;;;;;9.75;100.00;102875.19;5058269;28;20131;-74
2023/04/17 09:11:22;;;;;;;39.72;26.80;;;;;;;9.81;100.00;102871.00;5076972;28;20044;-73
2023/04/17 09:13:48;;;;;;;45.67;26.23;;;;;;;9.85;100.00;102887.00;5065062;28;20024;-73
2023/04/17 09:16:18;;;;;;;41.50;26.37;;;;;;;9.86;100.00;102887.84;5073653;28;20477;-74
2023/04/17 09:18:44;;;;;;;41.20;26.25;;;;;;;9.66;100.00;102891.59;5059320;28;20548;-73
2023/04/17 09:21:11;;;;;;;45.17;26.23;;;;;;;9.82;100.00;102892.75;5055596;28;20066;-74
2023/04/17 09:23:51;;;;;;;44.92;27.33;;;;;;;9.62;100.00;102893.72;5074296;28;20580;-74
2023/04/17 09:26:22;;;;;;;43.60;26.67;;;;;;;9.67;100.00;102883.22;5069421;28;20485;-73
2023/04/17 09:29:03;;;;;;;45.28;26.15;;;;;;;9.92;100.00;102892.78;5058415;28;20202;-73
2023/04/17 09:31:33;;;;;;;41.22;26.80;;;;;;;9.97;100.00;102890.44;5072837;28;20021;-74
2023/04/17 09:34:03;;;;;;;46.15;28.35;;;;;;;9.82;100.00;102895.50;5076550;28;20370;-74
2023/04/17 09:36:35;;;;;;;41.83;25.90;;;;;;;9.99;100.00;102893.94;5047714;28;20059;-74
2023/04/17 09:39:03;;;;;;;40.08;26.60;;;;;;;10.24;100.00;102893.41;5069873;28;20024;-72
2023/04/17 09:41:30;;;;;;;42.20;25.67;;;;;;;10.22;99.59;102885.31;5070434;28;20025;-73
2023/04/17 09:44:00;;;;;;;38.58;25.65;;;;;;;10.22;99.08;102887.19;5063017;28;20111;-73
2023/04/17 09:46:36;;;;;;;40.13;25.60;;;;;;;10.35;99.09;102895.97;5074384;28;20055;-74
2023/04/17 09:49:17;;;;;;;39.38;25.35;;;;;;;10.38;97.44;102896.53;5075648;28;20512;-74
2023/04/17 09:51:43;;;;;;;40.92;25.65;;;;;;;10.69;96.52;102891.72;5058024;28;20028;-74
2023/04/17 09:54:10;;;;;;;37.95;25.00;;;;;;;10.95;94.91;102887.31;5056032;28;20088;-73
2023/04/17 09:56:36;;;;;;;;;;;;;;;11.26;94.53;102889.63;5074152;28;20040;-74
2023/04/17 09:59:06;;;;;;;41.67;24.92;;;;;;;11.51;92.68;102882.56;5056173;28;20010;-74
2023/04/17 10:01:32;;;;;;;40.47;25.48;;;;;;;11.98;92.68;102876.78;5074799;28;20031;-75
2023/04/17 10:03:58;;;;;;;38.60;24.73;;;;;;;12.23;90.15;102883.34;5055536;28;20101;-75
2023/04/17 10:06:25;;;;;;;35.43;24.10;;;;;;;12.16;89.29;102879.53;5073578;28;20036;-74
2023/04/17 10:08:51;;;;;;;39.95;24.30;;;;;;;11.94;90.17;102875.34;5075581;28;20317;-75
2023/04/17 10:11:17;;;;;;;39.13;24.47;;;;;;;12.37;87.68;102877.28;5071852;28;20105;-74
2023/04/17 10:13:48;;;;;;;40.67;24.43;;;;;;;12.49;87.51;102887.00;5054823;28;20618;-75
2023/04/17 10:16:13;;;;;;;34.75;24.38;;;;;;;12.16;88.58;102874.03;5077117;28;20464;-75
2023/04/17 10:18:39;;;;;;;33.37;22.60;;;;;;;12.45;88.06;102880.09;5069616;28;20043;-75
2023/04/17 10:21:24;;;;;;;30.23;22.60;;;;;;;12.14;86.66;102879.69;5060664;28;20710;-75
2023/04/17 10:23:49;;;;;;;40.05;22.20;;;;;;;12.41;86.55;102893.31;5078703;28;20027;-74
2023/04/17 10:26:33;;;;;;;34.07;23.77;;;;;;;12.75;85.53;102885.16;5072807;28;20099;-75
2023/04/17 10:28:59;;;;;;;38.97;23.33;;;;;;;13.67;85.82;102890.59;5078516;28;20461;-75
2023/04/17 10:32:02;;;;;;;34.93;22.77;;;;;;;13.59;81.75;102885.09;5067770;28;20073;-75
2023/04/17 10:34:37;;;;;;;36.72;22.60;;;;;;;13.71;81.81;102893.91;5072545;28;20031;-75
2023/04/17 10:37:03;;;;;;;38.55;23.42;;;;;;;13.27;83.44;102889.59;5075137;28;21193;-75
2023/04/17 10:39:50;;;;;;;38.17;24.42;;;;;;;12.68;84.03;102887.69;5069068;28;20043;-75
2023/04/17 10:42:23;;;;;;;32.65;22.70;;;;;;;12.70;82.70;102877.38;5072425;28;20048;-75
2023/04/17 10:44:49;;;;;;;34.42;21.33;;;;;;;12.88;84.48;102888.31;5072195;28;20024;-75
2023/04/17 10:47:20;;;;;;;34.17;22.35;;;;;;;12.83;82.07;102890.69;5071661;28;20170;-75
2023/04/17 10:49:58;;;;;;;36.10;22.15;;;;;;;13.07;83.18;102888.13;5074591;28;20114;-75
2023/04/17 10:52:40;;;;;;;36.08;23.60;;;;;;;13.01;83.38;102884.13;5063429;28;20032;-79
2023/04/17 10:55:19;;;;;;;36.05;22.42;;;;;;;12.94;82.50;102893.16;5072068;28;20110;-75
2023/04/17 10:58:12;;;;;;;35.17;22.25;;;;;;;12.85;82.40;102894.13;5075068;28;20025;-75
2023/04/17 11:00:48;;;;;;;33.83;22.58;;;;;;;12.80;84.23;102877.28;5053180;28;20092;-75
2023/04/17 11:03:14;;;;;;;35.72;22.92;;;;;;;12.94;82.88;102884.91;5069898;28;20079;-75
2023/04/17 11:05:46;;;;;;;34.10;22.95;;;;;;;13.26;84.42;102887.88;5043319;28;20503;-75
2023/04/17 11:08:12;;;;;;;35.05;23.00;;;;;;;13.27;81.25;102881.31;5055193;28;20028;-75
2023/04/17 11:10:38;;;;;;;34.45;22.63;;;;;;;13.56;82.82;102884.56;5071681;28;20403;-75
2023/04/17 11:13:04;;;;;;;40.67;22.67;;;;;;;14.02;79.25;102878.47;5072060;28;20182;-73
2023/04/17 11:15:33;;;;;;;37.67;23.60;;;;;;;14.55;80.54;102871.47;5055621;28;20122;-75